Time;durP1;ratioP1;P1;durP2;ratioP2;P2;SDS_P1;SDS_P2;PMS_P1;PMS_P2;Temp;Humidity;BMP_temperature;BMP_pressure;BME280_temperature;BME280_humidity;BME280_pressure;Samples;Min_cycle;Max_cycle;Signal;HPM_P1;HPM_P2
2023/09/22 00:00:15;;;;;;;14.05;12.55;;;14.70;99.90;;;;;;5017820;28;20052;-67
2023/09/22 00:02:42;;;;;;;15.25;12.85;;;14.80;99.90;;;;;;5022075;28;20045;-67
2023/09/22 00:05:09;;;;;;;15.27;13.68;;;14.80;99.90;;;;;;5121667;27;20508;-66
2023/09/22 00:07:35;;;;;;;18.05;14.38;;;14.80;99.90;;;;;;5120723;27;20041;-66
2023/09/22 00:10:01;;;;;;;15.27;13.65;;;14.80;99.90;;;;;;5023191;28;20054;-66
2023/09/22 00:12:29;;;;;;;17.00;14.20;;;14.80;99.90;;;;;;5025499;27;20514;-67
2023/09/22 00:14:54;;;;;;;15.00;13.35;;;14.80;99.90;;;;;;5022299;28;20038;-67
2023/09/22 00:17:20;;;;;;;18.40;14.32;;;14.80;99.90;;;;;;5022441;28;20051;-66
2023/09/22 00:19:46;;;;;;;17.45;14.82;;;14.80;99.90;;;;;;5024202;28;20475;-66
2023/09/22 00:22:11;;;;;;;17.60;13.98;;;14.90;99.90;;;;;;5021741;28;20053;-66
2023/09/22 00:24:37;;;;;;;16.83;13.07;;;14.80;99.90;;;;;;5023403;28;20137;-66
2023/09/22 00:27:02;;;;;;;14.65;13.02;;;14.90;99.90;;;;;;5022333;28;20041;-66
2023/09/22 00:29:28;;;;;;;15.63;14.05;;;14.90;99.90;;;;;;5020130;28;20098;-67
2023/09/22 00:31:53;;;;;;;14.68;13.15;;;14.80;99.90;;;;;;5023661;28;20174;-67
2023/09/22 00:34:19;;;;;;;20.50;14.95;;;14.80;99.90;;;;;;5019018;28;20121;-67
2023/09/22 00:36:45;;;;;;;14.52;12.95;;;14.80;99.90;;;;;;5023291;28;20399;-67
2023/09/22 00:39:10;;;;;;;14.48;12.98;;;14.80;99.90;;;;;;5017241;28;20053;-66
2023/09/22 00:41:36;;;;;;;13.85;12.45;;;14.80;99.90;;;;;;5019078;28;20049;-66
2023/09/22 00:44:02;;;;;;;16.95;13.23;;;14.80;99.90;;;;;;5019767;28;20038;-66
2023/09/22 00:46:28;;;;;;;14.30;12.90;;;14.80;99.90;;;;;;5002201;28;20094;-66
2023/09/22 00:48:56;;;;;;;16.30;14.05;;;14.80;99.90;;;;;;5022950;27;20197;-66
2023/09/22 00:51:21;;;;;;;15.20;13.70;;;14.80;99.90;;;;;;5001555;28;20046;-66
2023/09/22 00:53:50;;;;;;;14.32;13.00;;;14.80;99.90;;;;;;5119490;27;20072;-67
2023/09/22 00:56:19;;;;;;;15.40;13.60;;;14.80;99.90;;;;;;5022185;28;20050;-67
2023/09/22 00:58:45;;;;;;;15.63;14.02;;;14.80;99.90;;;;;;5019429;28;20058;-67
2023/09/22 01:01:11;;;;;;;15.85;14.15;;;14.80;99.90;;;;;;5017451;27;20064;-67
2023/09/22 01:03:36;;;;;;;15.27;13.88;;;14.80;99.90;;;;;;5097520;27;20037;-66
2023/09/22 01:06:03;;;;;;;16.85;15.13;;;14.80;99.90;;;;;;5129104;27;20038;-66
2023/09/22 01:08:28;;;;;;;15.88;14.25;;;14.80;99.90;;;;;;5022078;28;20052;-66
2023/09/22 01:10:54;;;;;;;17.05;15.25;;;14.80;99.90;;;;;;5122102;27;20093;-66
2023/09/22 01:13:20;;;;;;;16.70;14.90;;;14.90;99.90;;;;;;5023027;27;20042;-66
2023/09/22 01:15:46;;;;;;;16.30;14.52;;;14.80;99.90;;;;;;5020700;28;20391;-66
2023/09/22 01:18:13;;;;;;;16.67;15.05;;;14.80;99.90;;;;;;5023668;27;20527;-66
2023/09/22 01:20:43;;;;;;;17.42;15.63;;;14.90;99.90;;;;;;5118856;27;20069;-66
2023/09/22 01:23:12;;;;;;;16.92;15.23;;;14.80;99.90;;;;;;5118368;27;20059;-66
2023/09/22 01:25:39;;;;;;;16.67;14.93;;;14.90;99.90;;;;;;5120396;27;20045;-66
2023/09/22 01:28:08;;;;;;;15.38;13.88;;;14.80;99.90;;;;;;5019497;28;20053;-66
2023/09/22 01:30:35;;;;;;;16.70;15.02;;;14.90;99.90;;;;;;5020612;28;20047;-66
2023/09/22 01:33:04;;;;;;;17.63;15.10;;;14.90;99.90;;;;;;5020448;27;20037;-66
2023/09/22 01:35:33;;;;;;;17.20;15.50;;;14.80;99.90;;;;;;5026423;27;20038;-66
2023/09/22 01:38:18;;;;;;;16.85;15.25;;;14.80;99.90;;;;;;5023562;27;20391;-66
2023/09/22 01:40:44;;;;;;;16.88;15.18;;;14.80;99.90;;;;;;5020292;28;20052;-66
2023/09/22 01:43:10;;;;;;;16.92;15.18;;;14.80;99.90;;;;;;5021006;28;20037;-66
2023/09/22 01:45:36;;;;;;;20.15;16.75;;;14.80;99.90;;;;;;5022555;28;20037;-66
2023/09/22 01:48:02;;;;;;;17.13;15.10;;;14.80;99.90;;;;;;5024564;28;20570;-66
2023/09/22 01:50:28;;;;;;;18.35;16.55;;;14.80;99.90;;;;;;5117667;27;20041;-66
2023/09/22 01:52:54;;;;;;;19.30;15.77;;;14.80;99.90;;;;;;5019237;27;20042;-66
2023/09/22 01:55:20;;;;;;;17.63;15.63;;;14.80;99.90;;;;;;5002528;28;20125;-67
2023/09/22 01:57:50;;;;;;;18.23;16.23;;;14.80;99.90;;;;;;5115534;27;20045;-66
2023/09/22 02:00:18;;;;;;;16.85;15.10;;;14.80;99.90;;;;;;5019436;27;20037;-66
2023/09/22 02:02:47;;;;;;;16.98;15.27;;;14.70;99.90;;;;;;5118734;27;20098;-66
2023/09/22 02:05:14;;;;;;;17.42;15.73;;;14.70;99.90;;;;;;5020449;27;20033;-66
2023/09/22 02:07:42;;;;;;;17.08;15.45;;;14.70;99.90;;;;;;5018433;28;20161;-66
2023/09/22 02:10:09;;;;;;;18.85;15.00;;;14.70;99.90;;;;;;5024191;27;20046;-66
2023/09/22 02:12:39;;;;;;;16.35;14.73;;;14.70;99.90;;;;;;5023452;28;20069;-66
2023/09/22 02:15:09;;;;;;;17.55;15.75;;;14.70;99.90;;;;;;5016036;28;20395;-66
2023/09/22 02:17:36;;;;;;;16.80;15.20;;;14.70;99.90;;;;;;5115675;27;20400;-66
2023/09/22 02:20:05;;;;;;;18.25;16.35;;;14.60;99.90;;;;;;5116758;27;20742;-66
2023/09/22 02:22:31;;;;;;;17.27;15.52;;;14.60;99.90;;;;;;5018124;27;20049;-66
2023/09/22 02:24:57;;;;;;;17.98;16.15;;;14.60;99.90;;;;;;5025749;28;20376;-66
2023/09/22 02:27:22;;;;;;;17.77;14.40;;;14.60;99.90;;;;;;5020819;28;20037;-66
2023/09/22 02:29:48;;;;;;;19.73;14.93;;;14.60;99.90;;;;;;5117624;27;20045;-66
2023/09/22 02:32:14;;;;;;;16.40;14.70;;;14.60;99.90;;;;;;5017282;28;20033;-66
2023/09/22 02:34:39;;;;;;;16.65;14.88;;;14.60;99.90;;;;;;5002200;28;20403;-66
2023/09/22 02:37:05;;;;;;;17.23;15.60;;;14.60;99.90;;;;;;5021802;28;20041;-66
2023/09/22 02:39:31;;;;;;;17.38;14.75;;;14.60;99.90;;;;;;5116698;27;20045;-66
2023/09/22 02:41:57;;;;;;;19.65;15.77;;;14.60;99.90;;;;;;5017510;28;20045;-66
2023/09/22 02:44:22;;;;;;;17.25;15.45;;;14.60;99.90;;;;;;5018106;28;20040;-66
2023/09/22 02:46:48;;;;;;;16.02;14.43;;;14.50;99.90;;;;;;5021430;28;20117;-66
2023/09/22 02:49:14;;;;;;;15.77;14.13;;;14.50;99.90;;;;;;5015552;28;20037;-66
2023/09/22 02:51:39;;;;;;;18.42;14.23;;;14.50;99.90;;;;;;5018577;28;20517;-66
2023/09/22 02:54:05;;;;;;;19.42;14.55;;;14.50;99.90;;;;;;5019942;28;20390;-66
2023/09/22 02:56:32;;;;;;;15.73;14.02;;;14.40;99.90;;;;;;5017560;28;20038;-67
2023/09/22 02:58:58;;;;;;;15.85;14.10;;;14.40;99.90;;;;;;5021004;28;20761;-67
2023/09/22 03:01:24;;;;;;;16.98;14.32;;;14.40;99.90;;;;;;5020588;28;20042;-67
2023/09/22 03:03:50;;;;;;;18.30;14.73;;;14.50;99.90;;;;;;5016886;28;20041;-67
2023/09/22 03:06:18;;;;;;;17.15;14.07;;;14.30;99.90;;;;;;5115282;27;20037;-67
2023/09/22 03:08:43;;;;;;;18.15;15.02;;;14.30;99.90;;;;;;5015334;28;20079;-67
2023/09/22 03:11:09;;;;;;;16.92;14.77;;;14.30;99.90;;;;;;5020800;28;20049;-66
2023/09/22 03:13:35;;;;;;;17.42;15.20;;;14.30;99.90;;;;;;5117655;27;20042;-66
2023/09/22 03:16:00;;;;;;;19.58;15.10;;;14.30;99.90;;;;;;5019591;28;20555;-66
2023/09/22 03:18:27;;;;;;;20.33;15.45;;;14.30;99.90;;;;;;5015857;28;20077;-66
2023/09/22 03:20:52;;;;;;;23.85;15.85;;;14.30;99.90;;;;;;5019434;28;20049;-66
2023/09/22 03:23:18;;;;;;;21.70;16.35;;;14.30;99.90;;;;;;5019220;28;20479;-66
2023/09/22 03:25:47;;;;;;;20.25;16.42;;;14.30;99.90;;;;;;5014924;28;20098;-66
2023/09/22 03:28:13;;;;;;;20.70;16.58;;;14.30;99.90;;;;;;5017616;27;20049;-66
2023/09/22 03:30:39;;;;;;;21.98;17.13;;;14.30;99.90;;;;;;5021506;28;20054;-66
2023/09/22 03:33:05;;;;;;;21.50;17.02;;;14.30;99.90;;;;;;5018360;28;20090;-66
2023/09/22 03:35:31;;;;;;;21.15;16.55;;;14.30;99.90;;;;;;5016772;28;20046;-67
2023/09/22 03:37:57;;;;;;;18.58;15.82;;;14.30;99.90;;;;;;5022891;28;20084;-67
2023/09/22 03:40:32;;;;;;;22.13;16.45;;;14.30;99.90;;;;;;5020564;28;20392;-66
2023/09/22 03:42:58;;;;;;;;;;;14.30;99.90;;;;;;5020033;28;20037;-66
2023/09/22 03:45:24;;;;;;;16.35;13.68;;;14.30;99.90;;;;;;5112719;27;20005;-66
2023/09/22 03:47:50;;;;;;;20.52;13.90;;;14.20;99.90;;;;;;5022114;28;20483;-66
2023/09/22 03:50:15;;;;;;;17.75;11.90;;;14.20;99.90;;;;;;5019557;28;20102;-66
2023/09/22 03:52:41;;;;;;;14.80;11.93;;;14.20;99.90;;;;;;5022659;28;20042;-66
2023/09/22 03:55:08;;;;;;;12.55;11.15;;;14.30;99.90;;;;;;5018917;28;20077;-66
2023/09/22 03:57:34;;;;;;;20.63;12.43;;;14.20;99.90;;;;;;5020711;28;20037;-66
2023/09/22 03:59:59;;;;;;;20.58;13.30;;;14.20;99.90;;;;;;5015835;28;20049;-66
2023/09/22 04:02:27;;;;;;;20.50;14.98;;;14.20;99.90;;;;;;5017417;28;20045;-66
2023/09/22 04:04:54;;;;;;;20.73;15.15;;;14.20;99.90;;;;;;5020004;28;20049;-66
2023/09/22 04:07:19;;;;;;;19.42;15.43;;;14.10;99.90;;;;;;5113938;27;20501;-66
2023/09/22 04:09:45;;;;;;;20.48;15.80;;;14.10;99.90;;;;;;5017059;28;20049;-66
2023/09/22 04:12:11;;;;;;;22.02;16.63;;;14.10;99.90;;;;;;5019858;28;20056;-66
2023/09/22 04:14:37;;;;;;;22.13;16.67;;;14.10;99.90;;;;;;5016782;28;20553;-66
2023/09/22 04:17:03;;;;;;;20.15;16.85;;;14.10;99.90;;;;;;5117207;27;20069;-66
2023/09/22 04:19:33;;;;;;;22.75;16.95;;;14.10;99.90;;;;;;5016011;28;20052;-66
2023/09/22 04:22:00;;;;;;;29.08;18.65;;;14.10;99.90;;;;;;5019349;28;20041;-66
2023/09/22 04:24:31;;;;;;;22.60;17.08;;;14.10;99.90;;;;;;5115088;27;20049;-66
2023/09/22 04:27:00;;;;;;;25.08;17.73;;;14.10;99.90;;;;;;5024669;28;20053;-66
2023/09/22 04:29:26;;;;;;;24.80;18.33;;;14.10;99.90;;;;;;5024326;28;20045;-66
2023/09/22 04:31:52;;;;;;;20.60;17.17;;;14.10;99.90;;;;;;5017465;28;20054;-66
2023/09/22 04:34:19;;;;;;;21.25;18.15;;;14.00;99.90;;;;;;5017093;28;20050;-66
2023/09/22 04:36:46;;;;;;;21.77;18.83;;;14.00;99.90;;;;;;5112537;27;20057;-66
2023/09/22 04:39:14;;;;;;;24.15;18.70;;;14.00;99.90;;;;;;5016177;28;20060;-66
2023/09/22 04:41:40;;;;;;;22.23;18.88;;;14.00;99.90;;;;;;5122309;27;20042;-66
2023/09/22 04:44:06;;;;;;;23.58;19.88;;;14.00;99.90;;;;;;5029248;28;20546;-66
2023/09/22 04:46:33;;;;;;;24.67;19.38;;;14.00;99.90;;;;;;5031023;27;20034;-66
2023/09/22 04:48:59;;;;;;;23.52;19.45;;;13.90;99.90;;;;;;5044153;27;20043;-66
2023/09/22 04:51:27;;;;;;;23.65;19.05;;;13.90;99.90;;;;;;5027904;27;20605;-66
2023/09/22 04:53:53;;;;;;;25.58;19.35;;;13.90;99.90;;;;;;5045818;27;20049;-66
2023/09/22 04:56:20;;;;;;;22.52;18.50;;;13.90;99.90;;;;;;5028692;27;20045;-66
2023/09/22 04:58:47;;;;;;;21.85;17.77;;;13.80;99.90;;;;;;5037570;27;20046;-66
2023/09/22 05:01:14;;;;;;;21.42;19.13;;;13.80;99.90;;;;;;5019352;27;20061;-66
2023/09/22 05:03:40;;;;;;;21.80;19.15;;;13.70;99.90;;;;;;5112062;27;20702;-66
2023/09/22 05:06:09;;;;;;;24.42;20.05;;;13.70;99.90;;;;;;5021470;27;20042;-66
2023/09/22 05:08:36;;;;;;;22.95;19.08;;;13.60;99.90;;;;;;5019443;28;20503;-66
2023/09/22 05:11:07;;;;;;;25.65;19.88;;;13.60;99.90;;;;;;5019780;28;20516;-66
2023/09/22 05:13:33;;;;;;;26.67;21.13;;;13.50;99.90;;;;;;5025258;27;20400;-66
2023/09/22 05:16:10;;;;;;;29.05;23.27;;;13.50;99.90;;;;;;5019124;28;20162;-66
2023/09/22 05:18:36;;;;;;;29.77;22.35;;;13.50;99.90;;;;;;5018161;28;20399;-66
2023/09/22 05:21:02;;;;;;;30.30;23.08;;;13.50;99.90;;;;;;5020189;28;20042;-66
2023/09/22 05:23:32;;;;;;;30.50;23.17;;;13.50;99.90;;;;;;5020999;27;20120;-66
2023/09/22 05:25:59;;;;;;;29.23;23.83;;;13.50;99.90;;;;;;5020016;27;20484;-66
2023/09/22 05:28:24;;;;;;;29.00;23.88;;;13.50;99.90;;;;;;5019896;27;20041;-66
2023/09/22 05:30:50;;;;;;;30.27;23.52;;;13.50;99.90;;;;;;5022246;28;20110;-66
2023/09/22 05:33:15;;;;;;;34.33;24.77;;;13.50;99.90;;;;;;5024214;27;20072;-66
2023/09/22 05:35:41;;;;;;;34.45;25.25;;;13.40;99.90;;;;;;5019279;28;20727;-66
2023/09/22 05:38:09;;;;;;;35.03;25.20;;;13.40;99.90;;;;;;5018738;28;20539;-66
2023/09/22 05:40:35;;;;;;;31.58;23.50;;;13.40;99.90;;;;;;5111585;27;20048;-66
2023/09/22 05:43:10;;;;;;;31.17;24.45;;;13.40;99.90;;;;;;5022720;27;20471;-67
2023/09/22 05:45:36;;;;;;;27.27;22.33;;;13.40;99.90;;;;;;5020661;28;20140;-68
2023/09/22 05:48:02;;;;;;;28.92;22.52;;;13.40;99.90;;;;;;5018802;28;20070;-67
2023/09/22 05:50:28;;;;;;;29.98;21.40;;;13.40;99.90;;;;;;5023451;28;20041;-68
2023/09/22 05:52:53;;;;;;;26.35;21.02;;;13.50;99.90;;;;;;5018002;28;20049;-65
2023/09/22 05:55:19;;;;;;;26.20;21.35;;;13.50;99.90;;;;;;5022784;27;20094;-65
2023/09/22 05:57:46;;;;;;;28.13;21.15;;;13.50;99.90;;;;;;5018006;28;20037;-65
2023/09/22 06:00:18;;;;;;;23.58;19.63;;;13.50;99.90;;;;;;5012222;28;20072;-65
2023/09/22 06:02:51;;;;;;;24.17;21.13;;;13.50;99.90;;;;;;5115308;27;20122;-65
2023/09/22 06:05:17;;;;;;;25.63;21.40;;;13.50;99.90;;;;;;5022447;28;20098;-65
2023/09/22 06:07:43;;;;;;;26.23;20.25;;;13.50;99.90;;;;;;5019627;28;20106;-65
2023/09/22 06:10:09;;;;;;;24.98;19.98;;;13.50;99.90;;;;;;5016870;27;20503;-65
2023/09/22 06:12:36;;;;;;;25.50;19.38;;;13.50;99.90;;;;;;5021056;27;20049;-65
2023/09/22 06:15:07;;;;;;;25.23;20.08;;;13.50;99.90;;;;;;5020274;28;20102;-65
2023/09/22 06:17:37;;;;;;;24.90;18.48;;;13.50;99.90;;;;;;5020874;28;20483;-65
2023/09/22 06:20:13;;;;;;;23.80;16.80;;;13.50;99.90;;;;;;5017137;28;20595;-65
2023/09/22 06:22:42;;;;;;;20.33;16.58;;;13.50;99.90;;;;;;5021380;28;20045;-65
2023/09/22 06:25:08;;;;;;;20.05;16.42;;;13.50;99.90;;;;;;5020357;28;20052;-65
2023/09/22 06:27:34;;;;;;;21.48;16.60;;;13.50;99.90;;;;;;5004628;28;20033;-65
2023/09/22 06:30:01;;;;;;;21.80;16.05;;;13.50;99.90;;;;;;5017189;28;20046;-65
2023/09/22 06:32:26;;;;;;;21.80;16.35;;;13.50;99.90;;;;;;5017198;28;20042;-65
2023/09/22 06:34:53;;;;;;;21.23;15.43;;;13.50;99.90;;;;;;5002853;28;20041;-65
2023/09/22 06:37:19;;;;;;;20.23;16.25;;;13.50;99.90;;;;;;5018614;28;20415;-65
2023/09/22 06:39:46;;;;;;;21.23;15.98;;;13.50;99.90;;;;;;5014598;27;20046;-65
2023/09/22 06:42:12;;;;;;;21.95;16.63;;;13.60;99.90;;;;;;5026320;27;20052;-65
2023/09/22 06:44:38;;;;;;;19.27;14.15;;;13.60;99.90;;;;;;5019574;27;20042;-65
2023/09/22 06:47:04;;;;;;;18.58;15.02;;;13.60;99.90;;;;;;5027365;27;20045;-65
2023/09/22 06:49:33;;;;;;;20.27;15.25;;;13.60;99.90;;;;;;5027997;27;20077;-65
2023/09/22 06:51:59;;;;;;;21.23;16.20;;;13.60;99.90;;;;;;5025007;27;20047;-65
2023/09/22 06:54:26;;;;;;;16.23;13.57;;;13.70;99.90;;;;;;5030457;27;20050;-65
2023/09/22 06:56:52;;;;;;;18.75;14.18;;;13.70;99.90;;;;;;5028439;27;20037;-65
2023/09/22 06:59:22;;;;;;;20.38;15.05;;;13.70;99.90;;;;;;5029511;27;20056;-65
2023/09/22 07:01:48;;;;;;;20.10;14.88;;;13.80;99.90;;;;;;5115692;27;20051;-65
2023/09/22 07:04:14;;;;;;;18.80;14.15;;;13.90;99.90;;;;;;5032588;27;20033;-65
2023/09/22 07:06:40;;;;;;;20.77;14.77;;;13.90;99.90;;;;;;5032488;27;20049;-65
2023/09/22 07:09:09;;;;;;;20.85;14.05;;;13.90;99.90;;;;;;5118151;27;20114;-65
2023/09/22 07:11:40;;;;;;;19.83;15.02;;;14.00;99.90;;;;;;5118458;27;20049;-65
2023/09/22 07:14:09;;;;;;;16.15;13.75;;;14.00;99.90;;;;;;5035197;27;20400;-65
2023/09/22 07:16:35;;;;;;;19.20;13.75;;;14.00;99.90;;;;;;5029905;27;20049;-65
2023/09/22 07:19:01;;;;;;;20.00;13.32;;;14.00;99.90;;;;;;5029665;27;20045;-65
2023/09/22 07:21:27;;;;;;;19.92;13.95;;;14.00;99.90;;;;;;5040749;27;20045;-65
2023/09/22 07:23:56;;;;;;;16.13;13.50;;;14.00;99.90;;;;;;5029338;28;20041;-65
2023/09/22 07:26:24;;;;;;;17.83;12.35;;;14.00;99.90;;;;;;5114384;27;20050;-65
2023/09/22 07:28:50;;;;;;;14.95;12.63;;;14.00;99.90;;;;;;5117448;27;20121;-65
2023/09/22 07:31:28;;;;;;;16.17;12.20;;;14.00;99.90;;;;;;5024454;28;20060;-65
2023/09/22 07:33:53;;;;;;;17.20;11.88;;;14.10;99.90;;;;;;5027231;28;20700;-65
2023/09/22 07:36:19;;;;;;;14.82;11.77;;;14.10;99.90;;;;;;5029823;28;20039;-65
2023/09/22 07:38:45;;;;;;;13.40;10.45;;;14.10;99.90;;;;;;5017637;28;20065;-65
2023/09/22 07:41:11;;;;;;;11.57;10.30;;;14.10;99.90;;;;;;5022407;28;20467;-65
2023/09/22 07:43:36;;;;;;;11.90;10.70;;;14.10;99.90;;;;;;5117579;27;20174;-65
2023/09/22 07:46:06;;;;;;;11.68;9.65;;;14.10;99.90;;;;;;5036487;28;20098;-65
2023/09/22 07:48:32;;;;;;;14.48;9.82;;;14.20;99.90;;;;;;5028883;28;20056;-65
2023/09/22 07:50:59;;;;;;;14.52;9.18;;;14.20;99.90;;;;;;5031468;28;20034;-65
2023/09/22 07:53:25;;;;;;;12.25;9.20;;;14.20;99.90;;;;;;5027634;28;20082;-65
2023/09/22 07:55:55;;;;;;;10.23;7.95;;;14.30;99.90;;;;;;5041686;27;20045;-65
2023/09/22 07:58:22;;;;;;;12.60;9.10;;;14.30;99.90;;;;;;5122940;27;20050;-65
2023/09/22 08:00:48;;;;;;;11.90;7.97;;;14.30;99.90;;;;;;5017728;28;20097;-65
2023/09/22 08:03:14;;;;;;;10.07;6.88;;;14.30;99.90;;;;;;5020705;28;20128;-65
2023/09/22 08:05:40;;;;;;;8.52;6.70;;;14.40;99.90;;;;;;5024891;28;20571;-65
2023/09/22 08:08:07;;;;;;;9.50;6.78;;;14.40;99.90;;;;;;5017381;28;20156;-65
2023/09/22 08:10:33;;;;;;;13.23;6.78;;;14.50;99.90;;;;;;5025288;28;20034;-65
2023/09/22 08:12:59;;;;;;;9.75;6.63;;;14.50;99.90;;;;;;5030232;28;20034;-65
2023/09/22 08:15:26;;;;;;;8.15;5.53;;;14.60;99.90;;;;;;5032369;28;20038;-65
2023/09/22 08:17:52;;;;;;;6.63;5.35;;;14.70;99.90;;;;;;5028753;28;20114;-65
2023/09/22 08:20:19;;;;;;;8.63;5.78;;;14.70;99.90;;;;;;5026569;28;20144;-65
2023/09/22 08:22:47;;;;;;;8.05;5.32;;;14.80;99.90;;;;;;5014559;27;20620;-65
2023/09/22 08:25:13;;;;;;;7.72;4.68;;;14.80;99.90;;;;;;5027266;27;20046;-65
2023/09/22 08:27:40;;;;;;;5.80;4.22;;;14.90;99.90;;;;;;5123122;27;20043;-65
2023/09/22 08:30:11;;;;;;;5.82;4.00;;;14.90;99.90;;;;;;5038116;27;20057;-65
2023/09/22 08:32:39;;;;;;;15.68;4.95;;;14.90;99.90;;;;;;5033914;27;20049;-65
2023/09/22 08:35:10;;;;;;;7.35;4.05;;;14.90;99.90;;;;;;5025819;27;20037;-65
2023/09/22 08:37:42;;;;;;;8.40;4.47;;;15.00;99.90;;;;;;5019132;27;20052;-65
2023/09/22 08:40:18;;;;;;;9.45;5.00;;;14.90;99.90;;;;;;5019500;27;20828;-65
2023/09/22 08:42:45;;;;;;;7.82;4.80;;;15.00;99.90;;;;;;5027820;27;20970;-65
2023/09/22 08:45:11;;;;;;;5.93;4.10;;;15.00;99.90;;;;;;5033576;27;20044;-65
2023/09/22 08:47:41;;;;;;;4.40;3.30;;;15.10;99.90;;;;;;5031570;27;20396;-65
2023/09/22 08:50:11;;;;;;;5.18;3.45;;;15.20;99.90;;;;;;5105620;27;20072;-65
2023/09/22 08:52:42;;;;;;;4.07;3.45;;;15.40;99.90;;;;;;5030334;27;20128;-65
2023/09/22 08:55:09;;;;;;;5.55;3.53;;;15.60;99.90;;;;;;5032092;27;20034;-65
2023/09/22 08:57:35;;;;;;;5.32;3.58;;;15.70;99.90;;;;;;5026335;27;20042;-65
2023/09/22 09:00:01;;;;;;;3.72;2.17;;;15.90;99.90;;;;;;5018590;27;20109;-65
2023/09/22 09:02:27;;;;;;;4.40;2.08;;;16.20;99.90;;;;;;5023211;27;20439;-65
2023/09/22 09:04:53;;;;;;;4.68;1.65;;;16.50;99.90;;;;;;5029796;27;20427;-65
2023/09/22 09:07:22;;;;;;;5.68;1.45;;;16.70;99.90;;;;;;5040320;27;20076;-65
2023/09/22 09:09:48;;;;;;;4.03;1.17;;;16.90;99.90;;;;;;5118047;27;20046;-65
2023/09/22 09:12:15;;;;;;;3.45;1.55;;;17.00;99.90;;;;;;5042840;27;20041;-65
2023/09/22 09:14:42;;;;;;;2.50;0.93;;;16.70;99.90;;;;;;5114537;27;20491;-65
2023/09/22 09:17:19;;;;;;;2.70;1.15;;;16.50;99.90;;;;;;5021916;27;20102;-65
2023/09/22 09:19:56;;;;;;;2.92;1.20;;;16.30;99.90;;;;;;5043184;27;20132;-65
2023/09/22 09:22:27;;;;;;;1.65;0.80;;;16.00;99.90;;;;;;5052202;27;20720;-65
2023/09/22 09:24:53;;;;;;;2.35;1.05;;;15.90;99.90;;;;;;5041492;27;20052;-65
2023/09/22 09:27:19;;;;;;;2.92;1.25;;;15.80;99.90;;;;;;5018665;27;20080;-65
2023/09/22 09:29:53;;;;;;;2.45;1.05;;;15.70;99.90;;;;;;5117693;27;20144;-65
2023/09/22 09:32:29;;;;;;;2.38;0.75;;;15.60;99.90;;;;;;5036886;27;20046;-65
2023/09/22 09:34:55;;;;;;;2.83;0.90;;;15.70;99.90;;;;;;5026284;27;20140;-65
2023/09/22 09:37:21;;;;;;;7.43;1.35;;;15.70;99.90;;;;;;5059485;27;20124;-65
2023/09/22 09:39:52;;;;;;;2.63;0.70;;;15.70;99.90;;;;;;5028787;27;20038;-65
2023/09/22 09:42:20;;;;;;;1.95;0.75;;;15.70;99.90;;;;;;5031374;27;20618;-65
2023/09/22 09:44:49;;;;;;;2.45;0.85;;;15.80;99.90;;;;;;5030515;27;20502;-65
2023/09/22 09:47:26;;;;;;;3.53;0.57;;;15.90;99.90;;;;;;5114308;27;20091;-65
2023/09/22 09:49:54;;;;;;;1.83;0.70;;;16.00;99.90;;;;;;5040693;27;20043;-65
2023/09/22 09:53:01;;;;;;;3.15;0.90;;;16.10;99.90;;;;;;5030994;27;20566;-65
2023/09/22 09:55:27;;;;;;;1.30;0.40;;;16.00;99.90;;;;;;5039187;28;20052;-65
2023/09/22 09:57:56;;;;;;;2.00;0.70;;;16.20;99.90;;;;;;5027965;28;20044;-65
2023/09/22 10:00:22;;;;;;;2.60;0.95;;;16.50;99.90;;;;;;5027588;27;20531;-65
2023/09/22 10:02:49;;;;;;;5.10;0.63;;;16.80;99.90;;;;;;5019991;27;20045;-65
2023/09/22 10:05:21;;;;;;;2.10;0.73;;;17.10;99.90;;;;;;5014015;27;20084;-65
2023/09/22 10:07:49;;;;;;;6.38;0.82;;;17.40;99.90;;;;;;5025285;27;20057;-65
2023/09/22 10:10:24;;;;;;;4.45;0.80;;;17.60;99.90;;;;;;5027947;27;20043;-65
2023/09/22 10:12:50;;;;;;;1.42;0.60;;;17.90;99.90;;;;;;5112800;27;20052;-65
2023/09/22 10:15:36;;;;;;;2.47;0.60;;;18.10;99.90;;;;;;5043262;27;20037;-65
2023/09/22 10:18:04;;;;;;;1.83;0.60;;;18.30;99.90;;;;;;5120756;27;20071;-65
2023/09/22 10:20:45;;;;;;;6.63;1.60;;;18.60;99.90;;;;;;5113136;27;20495;-65
2023/09/22 10:23:23;;;;;;;2.78;0.57;;;18.80;99.90;;;;;;5012324;28;21403;-65
2023/09/22 10:26:18;;;;;;;2.67;0.50;;;19.00;99.90;;;;;;5012905;28;20073;-65
2023/09/22 10:28:44;;;;;;;1.25;0.55;;;19.30;99.90;;;;;;5112233;27;20049;-65
2023/09/22 10:31:10;;;;;;;4.15;0.50;;;19.40;99.90;;;;;;5011329;28;20369;-65
2023/09/22 10:33:36;;;;;;;2.45;0.50;;;19.40;99.90;;;;;;5007850;28;20056;-65
2023/09/22 10:36:04;;;;;;;3.95;0.45;;;19.40;99.90;;;;;;5018010;27;20057;-65
2023/09/22 10:38:52;;;;;;;0.85;0.40;;;19.50;99.90;;;;;;5020636;27;20064;-65
2023/09/22 10:41:20;;;;;;;2.40;0.70;;;19.50;99.90;;;;;;5028364;27;20136;-66
2023/09/22 10:43:58;;;;;;;3.15;0.70;;;19.70;99.90;;;;;;5031637;27;20559;-65
2023/09/22 10:46:24;;;;;;;1.40;0.40;;;19.90;99.90;;;;;;5018847;28;20112;-65
2023/09/22 10:48:50;;;;;;;2.03;0.57;;;20.10;99.90;;;;;;5013344;27;20469;-65
2023/09/22 10:51:18;;;;;;;3.47;0.70;;;20.20;99.90;;;;;;5025396;27;20169;-65
2023/09/22 10:53:56;;;;;;;1.05;0.40;;;20.10;99.90;;;;;;5023468;27;20053;-65
2023/09/22 10:56:24;;;;;;;1.15;0.47;;;19.90;99.90;;;;;;5022008;27;20052;-65
2023/09/22 10:58:49;;;;;;;0.80;0.50;;;19.90;99.90;;;;;;5021895;27;20662;-65
2023/09/22 11:01:15;;;;;;;1.92;0.70;;;19.70;99.90;;;;;;5006745;28;20048;-65
2023/09/22 11:03:53;;;;;;;4.13;0.82;;;19.60;99.90;;;;;;5030699;27;20037;-65
2023/09/22 11:06:19;;;;;;;1.38;0.63;;;19.60;99.90;;;;;;5031425;27;20066;-65
2023/09/22 11:08:52;;;;;;;4.00;0.65;;;19.80;99.90;;;;;;5119197;27;20148;-65
2023/09/22 11:11:19;;;;;;;13.48;1.20;;;19.80;99.90;;;;;;5031126;27;20053;-65
2023/09/22 11:13:52;;;;;;;4.25;0.65;;;20.00;99.90;;;;;;5028775;27;20459;-65
2023/09/22 11:16:19;;;;;;;1.80;0.40;;;19.80;99.90;;;;;;5029352;27;20402;-65
2023/09/22 11:18:45;;;;;;;1.50;0.38;;;19.60;99.90;;;;;;5019870;27;20558;-65
2023/09/22 11:21:12;;;;;;;1.45;0.65;;;19.20;99.90;;;;;;5003916;28;20045;-65
2023/09/22 11:23:39;;;;;;;1.67;0.45;;;19.00;99.90;;;;;;5042789;27;20049;-66
2023/09/22 11:26:10;;;;;;;1.60;0.60;;;18.80;99.90;;;;;;5011692;28;20053;-67
2023/09/22 11:28:41;;;;;;;2.53;0.77;;;18.70;99.90;;;;;;5012854;28;20084;-66
2023/09/22 11:31:08;;;;;;;1.15;0.43;;;18.70;99.90;;;;;;5016344;28;20056;-67
2023/09/22 11:33:36;;;;;;;1.45;0.60;;;18.60;99.90;;;;;;5017136;28;20124;-67
2023/09/22 11:36:02;;;;;;;1.77;0.50;;;18.60;99.90;;;;;;5016473;28;20149;-67
2023/09/22 11:38:29;;;;;;;1.00;0.60;;;18.50;99.90;;;;;;5015892;28;20494;-65
2023/09/22 11:41:04;;;;;;;5.40;0.80;;;18.40;99.90;;;;;;5018227;28;20038;-65
2023/09/22 11:43:31;;;;;;;1.40;0.70;;;18.10;99.90;;;;;;5011499;28;20133;-65
2023/09/22 11:46:10;;;;;;;0.68;0.40;;;18.10;99.90;;;;;;5111867;27;20044;-65
2023/09/22 11:48:52;;;;;;;2.78;0.60;;;18.00;99.90;;;;;;5010594;28;20045;-65
2023/09/22 11:51:19;;;;;;;1.48;0.60;;;18.00;99.90;;;;;;5021944;28;20444;-65
2023/09/22 11:53:46;;;;;;;2.85;1.20;;;18.00;99.90;;;;;;5013220;28;20522;-65
2023/09/22 11:56:11;;;;;;;1.58;0.47;;;18.00;99.90;;;;;;5023222;28;20045;-64
2023/09/22 11:58:38;;;;;;;2.55;1.05;;;18.00;99.90;;;;;;5020646;28;20045;-65
2023/09/22 12:01:04;;;;;;;2.50;0.73;;;18.00;99.90;;;;;;5116891;27;20046;-65
2023/09/22 12:03:29;;;;;;;4.63;0.60;;;18.10;99.90;;;;;;5018721;28;20049;-65
2023/09/22 12:05:55;;;;;;;1.88;0.70;;;18.40;99.90;;;;;;5017471;28;20038;-65
2023/09/22 12:08:21;;;;;;;1.48;0.55;;;18.70;99.90;;;;;;5001988;28;20128;-65
2023/09/22 12:10:46;;;;;;;3.03;1.00;;;18.80;99.90;;;;;;5016589;28;20045;-65
2023/09/22 12:13:12;;;;;;;4.97;0.90;;;18.80;99.90;;;;;;5015526;28;20899;-65
2023/09/22 12:15:38;;;;;;;3.88;1.20;;;18.70;99.90;;;;;;5011323;28;20106;-65
2023/09/22 12:18:04;;;;;;;1.70;0.40;;;18.70;99.90;;;;;;5017329;28;20034;-65
2023/09/22 12:20:30;;;;;;;4.30;1.02;;;18.50;99.90;;;;;;5113065;27;20050;-65
2023/09/22 12:22:56;;;;;;;1.55;0.60;;;18.40;99.90;;;;;;5012965;28;20046;-65
2023/09/22 12:25:22;;;;;;;0.80;0.50;;;18.30;99.90;;;;;;5018802;28;20415;-65
2023/09/22 12:27:48;;;;;;;2.08;0.82;;;18.20;99.90;;;;;;5016927;28;20042;-65
2023/09/22 12:30:14;;;;;;;3.55;0.70;;;18.20;99.90;;;;;;5016567;28;20079;-65
2023/09/22 12:32:39;;;;;;;1.67;0.63;;;18.20;99.90;;;;;;5015627;28;20045;-65
2023/09/22 12:35:06;;;;;;;1.73;0.70;;;18.10;99.90;;;;;;5016973;28;20042;-65
2023/09/22 12:37:33;;;;;;;5.55;0.80;;;18.10;99.90;;;;;;5017758;28;21233;-65